sensor_id;sensor_type;location;lat;lon;timestamp;pressure;altitude;pressure_sealevel;temperature;humidity
77450;BME280;66536;53.150;18.172;2024-01-15T00:00:59;98886.88;;;1.76;91.35
77450;BME280;66536;53.150;18.172;2024-01-15T00:03:46;98881.40;;;1.76;91.34
77450;BME280;66536;53.150;18.172;2024-01-15T00:06:13;98879.63;;;1.75;91.36
77450;BME280;66536;53.150;18.172;2024-01-15T00:08:40;98871.46;;;1.76;91.43
77450;BME280;66536;53.150;18.172;2024-01-15T00:11:06;98868.34;;;1.75;91.57
77450;BME280;66536;53.150;18.172;2024-01-15T00:13:33;98857.34;;;1.73;91.51
77450;BME280;66536;53.150;18.172;2024-01-15T00:16:00;98857.46;;;1.73;91.73
77450;BME280;66536;53.150;18.172;2024-01-15T00:18:27;98848.25;;;1.72;91.74
77450;BME280;66536;53.150;18.172;2024-01-15T00:20:53;98853.02;;;1.71;91.71
77450;BME280;66536;53.150;18.172;2024-01-15T00:23:20;98844.79;;;1.67;92.00
77450;BME280;66536;53.150;18.172;2024-01-15T00:25:47;98847.36;;;1.67;91.96
77450;BME280;66536;53.150;18.172;2024-01-15T00:28:14;98847.17;;;1.67;91.92
77450;BME280;66536;53.150;18.172;2024-01-15T00:30:41;98838.86;;;1.69;91.88
77450;BME280;66536;53.150;18.172;2024-01-15T00:33:07;98836.23;;;1.69;91.82
77450;BME280;66536;53.150;18.172;2024-01-15T00:35:34;98832.15;;;1.68;91.95
77450;BME280;66536;53.150;18.172;2024-01-15T00:38:01;98827.02;;;1.67;91.92
77450;BME280;66536;53.150;18.172;2024-01-15T00:40:28;98820.51;;;1.67;91.95
77450;BME280;66536;53.150;18.172;2024-01-15T00:42:55;98811.90;;;1.63;92.03
77450;BME280;66536;53.150;18.172;2024-01-15T00:45:22;98811.98;;;1.60;92.24
77450;BME280;66536;53.150;18.172;2024-01-15T00:47:49;98808.77;;;1.58;92.22
77450;BME280;66536;53.150;18.172;2024-01-15T00:50:16;98810.33;;;1.55;92.42
77450;BME280;66536;53.150;18.172;2024-01-15T00:52:43;98805.08;;;1.55;92.66
77450;BME280;66536;53.150;18.172;2024-01-15T00:55:10;98797.51;;;1.56;92.68
77450;BME280;66536;53.150;18.172;2024-01-15T00:57:37;98799.82;;;1.56;92.53
77450;BME280;66536;53.150;18.172;2024-01-15T01:00:04;98790.64;;;1.55;92.58
77450;BME280;66536;53.150;18.172;2024-01-15T01:02:32;98786.05;;;1.54;92.73
77450;BME280;66536;53.150;18.172;2024-01-15T01:04:58;98777.46;;;1.53;92.59
77450;BME280;66536;53.150;18.172;2024-01-15T01:07:25;98776.17;;;1.54;92.80
77450;BME280;66536;53.150;18.172;2024-01-15T01:09:52;98777.77;;;1.55;92.69
77450;BME280;66536;53.150;18.172;2024-01-15T01:12:19;98765.81;;;1.55;92.70
77450;BME280;66536;53.150;18.172;2024-01-15T01:14:46;98763.11;;;1.57;92.82
77450;BME280;66536;53.150;18.172;2024-01-15T01:17:13;98758.84;;;1.57;92.57
77450;BME280;66536;53.150;18.172;2024-01-15T01:19:40;98751.96;;;1.56;92.70
77450;BME280;66536;53.150;18.172;2024-01-15T01:22:09;98748.84;;;1.57;92.85
77450;BME280;66536;53.150;18.172;2024-01-15T01:24:36;98745.30;;;1.58;92.84
77450;BME280;66536;53.150;18.172;2024-01-15T01:27:02;98738.41;;;1.58;92.70
77450;BME280;66536;53.150;18.172;2024-01-15T01:29:29;98734.16;;;1.58;92.82
77450;BME280;66536;53.150;18.172;2024-01-15T01:31:56;98731.89;;;1.59;92.68
77450;BME280;66536;53.150;18.172;2024-01-15T01:34:23;98729.00;;;1.59;92.64
77450;BME280;66536;53.150;18.172;2024-01-15T01:36:50;98729.58;;;1.60;92.65
77450;BME280;66536;53.150;18.172;2024-01-15T01:39:17;98727.94;;;1.60;92.69
77450;BME280;66536;53.150;18.172;2024-01-15T01:41:43;98723.43;;;1.60;92.72
77450;BME280;66536;53.150;18.172;2024-01-15T01:44:10;98714.95;;;1.61;92.60
77450;BME280;66536;53.150;18.172;2024-01-15T01:46:38;98717.34;;;1.61;92.60
77450;BME280;66536;53.150;18.172;2024-01-15T01:49:08;98712.83;;;1.63;92.55
77450;BME280;66536;53.150;18.172;2024-01-15T01:51:35;98709.23;;;1.64;92.55
77450;BME280;66536;53.150;18.172;2024-01-15T01:54:04;98700.33;;;1.66;92.41
77450;BME280;66536;53.150;18.172;2024-01-15T01:56:33;98696.12;;;1.67;92.26
77450;BME280;66536;53.150;18.172;2024-01-15T01:59:01;98693.73;;;1.66;92.16
77450;BME280;66536;53.150;18.172;2024-01-15T02:01:31;98687.77;;;1.63;91.90
77450;BME280;66536;53.150;18.172;2024-01-15T02:03:58;98685.85;;;1.64;92.00
77450;BME280;66536;53.150;18.172;2024-01-15T02:06:28;98680.32;;;1.63;92.05
77450;BME280;66536;53.150;18.172;2024-01-15T02:08:55;98669.29;;;1.64;91.99
77450;BME280;66536;53.150;18.172;2024-01-15T02:11:22;98665.60;;;1.65;92.01
77450;BME280;66536;53.150;18.172;2024-01-15T02:13:49;98661.73;;;1.65;91.99
77450;BME280;66536;53.150;18.172;2024-01-15T02:16:16;98662.70;;;1.64;92.00
77450;BME280;66536;53.150;18.172;2024-01-15T02:18:45;98654.86;;;1.62;92.15
77450;BME280;66536;53.150;18.172;2024-01-15T02:21:12;98655.03;;;1.62;92.00
77450;BME280;66536;53.150;18.172;2024-01-15T02:23:39;98657.34;;;1.58;92.11
77450;BME280;66536;53.150;18.172;2024-01-15T02:26:07;98650.36;;;1.56;92.13
77450;BME280;66536;53.150;18.172;2024-01-15T02:28:34;98644.61;;;1.53;92.13
77450;BME280;66536;53.150;18.172;2024-01-15T02:31:01;98639.33;;;1.53;92.22
77450;BME280;66536;53.150;18.172;2024-01-15T02:33:28;98638.48;;;1.56;92.16
77450;BME280;66536;53.150;18.172;2024-01-15T02:35:55;98639.23;;;1.55;91.93
77450;BME280;66536;53.150;18.172;2024-01-15T02:38:21;98631.66;;;1.55;91.92
77450;BME280;66536;53.150;18.172;2024-01-15T02:40:49;98627.90;;;1.55;91.85
77450;BME280;66536;53.150;18.172;2024-01-15T02:43:17;98627.73;;;1.56;91.81
77450;BME280;66536;53.150;18.172;2024-01-15T02:45:46;98624.37;;;1.54;91.64
77450;BME280;66536;53.150;18.172;2024-01-15T02:48:14;98618.53;;;1.54;91.30
77450;BME280;66536;53.150;18.172;2024-01-15T02:50:41;98618.34;;;1.54;91.41
77450;BME280;66536;53.150;18.172;2024-01-15T02:53:07;98620.31;;;1.55;91.53
77450;BME280;66536;53.150;18.172;2024-01-15T02:55:34;98619.52;;;1.56;91.44
77450;BME280;66536;53.150;18.172;2024-01-15T02:58:01;98614.92;;;1.55;91.34
77450;BME280;66536;53.150;18.172;2024-01-15T03:00:28;98605.89;;;1.55;91.32
77450;BME280;66536;53.150;18.172;2024-01-15T03:02:55;98602.45;;;1.57;91.18
77450;BME280;66536;53.150;18.172;2024-01-15T03:05:22;98598.52;;;1.57;91.19
77450;BME280;66536;53.150;18.172;2024-01-15T03:07:49;98597.07;;;1.57;91.26
77450;BME280;66536;53.150;18.172;2024-01-15T03:10:16;98590.76;;;1.57;91.37
77450;BME280;66536;53.150;18.172;2024-01-15T03:12:43;98587.51;;;1.57;91.33
77450;BME280;66536;53.150;18.172;2024-01-15T03:15:09;98579.27;;;1.56;91.37
77450;BME280;66536;53.150;18.172;2024-01-15T03:17:36;98577.38;;;1.58;91.33
77450;BME280;66536;53.150;18.172;2024-01-15T03:20:03;98572.63;;;1.60;91.38
77450;BME280;66536;53.150;18.172;2024-01-15T03:22:30;98564.43;;;1.62;91.35
77450;BME280;66536;53.150;18.172;2024-01-15T03:24:57;98566.55;;;1.61;91.36
77450;BME280;66536;53.150;18.172;2024-01-15T03:27:24;98563.11;;;1.59;91.47
77450;BME280;66536;53.150;18.172;2024-01-15T03:29:52;98561.58;;;1.56;91.59
77450;BME280;66536;53.150;18.172;2024-01-15T03:32:19;98560.96;;;1.55;91.84
77450;BME280;66536;53.150;18.172;2024-01-15T03:34:46;98556.42;;;1.48;91.94
77450;BME280;66536;53.150;18.172;2024-01-15T03:37:14;98554.09;;;1.42;92.29
77450;BME280;66536;53.150;18.172;2024-01-15T03:39:41;98550.77;;;1.39;92.59
77450;BME280;66536;53.150;18.172;2024-01-15T03:42:07;98549.08;;;1.38;92.66
77450;BME280;66536;53.150;18.172;2024-01-15T03:44:36;98541.60;;;1.34;92.79
77450;BME280;66536;53.150;18.172;2024-01-15T03:47:03;98539.17;;;1.31;92.91
77450;BME280;66536;53.150;18.172;2024-01-15T03:49:30;98537.69;;;1.30;93.07
77450;BME280;66536;53.150;18.172;2024-01-15T03:51:57;98530.24;;;1.30;93.15
77450;BME280;66536;53.150;18.172;2024-01-15T03:54:24;98525.34;;;1.31;93.21
77450;BME280;66536;53.150;18.172;2024-01-15T03:56:51;98522.91;;;1.32;93.17
77450;BME280;66536;53.150;18.172;2024-01-15T03:59:21;98520.99;;;1.31;93.19
77450;BME280;66536;53.150;18.172;2024-01-15T04:01:49;98519.30;;;1.28;93.42
77450;BME280;66536;53.150;18.172;2024-01-15T04:04:17;98520.30;;;1.25;93.55
77450;BME280;66536;53.150;18.172;2024-01-15T04:06:45;98517.29;;;1.22;93.65
77450;BME280;66536;53.150;18.172;2024-01-15T04:09:12;98512.00;;;1.18;93.77
77450;BME280;66536;53.150;18.172;2024-01-15T04:11:40;98505.66;;;1.16;93.89
77450;BME280;66536;53.150;18.172;2024-01-15T04:14:07;98499.46;;;1.14;94.10
77450;BME280;66536;53.150;18.172;2024-01-15T04:16:34;98494.21;;;1.11;94.28
77450;BME280;66536;53.150;18.172;2024-01-15T04:19:00;98491.41;;;1.09;94.43
77450;BME280;66536;53.150;18.172;2024-01-15T04:21:27;98488.95;;;1.09;94.46
77450;BME280;66536;53.150;18.172;2024-01-15T04:23:54;98484.00;;;1.09;94.43
77450;BME280;66536;53.150;18.172;2024-01-15T04:26:21;98492.75;;;1.08;94.37
77450;BME280;66536;53.150;18.172;2024-01-15T04:28:48;98487.92;;;1.07;94.54
77450;BME280;66536;53.150;18.172;2024-01-15T04:31:24;98496.27;;;1.04;94.62
77450;BME280;66536;53.150;18.172;2024-01-15T04:33:51;98483.86;;;1.02;94.89
77450;BME280;66536;53.150;18.172;2024-01-15T04:36:19;98486.80;;;1.00;94.95
77450;BME280;66536;53.150;18.172;2024-01-15T04:38:45;98474.89;;;0.99;95.02
77450;BME280;66536;53.150;18.172;2024-01-15T04:41:13;98468.12;;;0.97;94.66
77450;BME280;66536;53.150;18.172;2024-01-15T04:43:40;98470.30;;;0.99;94.18
77450;BME280;66536;53.150;18.172;2024-01-15T04:46:07;98457.73;;;0.97;93.48
77450;BME280;66536;53.150;18.172;2024-01-15T04:48:37;98460.88;;;0.97;93.07
77450;BME280;66536;53.150;18.172;2024-01-15T04:51:05;98460.64;;;0.98;93.35
77450;BME280;66536;53.150;18.172;2024-01-15T04:53:34;98453.70;;;0.97;93.38
77450;BME280;66536;53.150;18.172;2024-01-15T04:56:04;98460.64;;;0.95;93.37
77450;BME280;66536;53.150;18.172;2024-01-15T04:58:31;98452.23;;;0.90;93.29
77450;BME280;66536;53.150;18.172;2024-01-15T05:00:58;98459.79;;;0.87;93.39
77450;BME280;66536;53.150;18.172;2024-01-15T05:03:24;98457.96;;;0.86;93.78
77450;BME280;66536;53.150;18.172;2024-01-15T05:05:51;98457.86;;;0.88;94.05
77450;BME280;66536;53.150;18.172;2024-01-15T05:08:18;98464.48;;;0.89;93.81
77450;BME280;66536;53.150;18.172;2024-01-15T05:10:45;98464.64;;;0.90;94.00
77450;BME280;66536;53.150;18.172;2024-01-15T05:13:12;98469.02;;;0.91;93.91
77450;BME280;66536;53.150;18.172;2024-01-15T05:15:39;98459.70;;;0.90;93.82
77450;BME280;66536;53.150;18.172;2024-01-15T05:18:06;98471.19;;;0.87;93.62
77450;BME280;66536;53.150;18.172;2024-01-15T05:20:33;98464.15;;;0.82;93.78
77450;BME280;66536;53.150;18.172;2024-01-15T05:23:01;98471.94;;;0.80;93.70
77450;BME280;66536;53.150;18.172;2024-01-15T05:25:28;98478.92;;;0.77;93.36
77450;BME280;66536;53.150;18.172;2024-01-15T05:27:55;98468.34;;;0.75;93.25
77450;BME280;66536;53.150;18.172;2024-01-15T05:30:22;98469.02;;;0.74;92.76
77450;BME280;66536;53.150;18.172;2024-01-15T05:32:49;98466.31;;;0.69;92.40
77450;BME280;66536;53.150;18.172;2024-01-15T05:35:16;98472.11;;;0.65;92.12
77450;BME280;66536;53.150;18.172;2024-01-15T05:37:44;98475.48;;;0.64;92.35
77450;BME280;66536;53.150;18.172;2024-01-15T05:40:12;98478.27;;;0.64;92.26
77450;BME280;66536;53.150;18.172;2024-01-15T05:42:40;98476.30;;;0.65;91.95
77450;BME280;66536;53.150;18.172;2024-01-15T05:45:07;98479.04;;;0.63;91.72
77450;BME280;66536;53.150;18.172;2024-01-15T05:47:34;98473.79;;;0.63;91.88
77450;BME280;66536;53.150;18.172;2024-01-15T05:50:01;98468.86;;;0.63;91.77
77450;BME280;66536;53.150;18.172;2024-01-15T05:52:28;98466.23;;;0.65;91.49
77450;BME280;66536;53.150;18.172;2024-01-15T05:54:55;98460.96;;;0.66;91.51
77450;BME280;66536;53.150;18.172;2024-01-15T05:57:23;98459.77;;;0.64;91.32
77450;BME280;66536;53.150;18.172;2024-01-15T05:59:51;98457.94;;;0.62;91.41
77450;BME280;66536;53.150;18.172;2024-01-15T06:02:18;98456.10;;;0.64;91.26
77450;BME280;66536;53.150;18.172;2024-01-15T06:04:45;98452.96;;;0.64;91.12
77450;BME280;66536;53.150;18.172;2024-01-15T06:07:11;98454.65;;;0.63;91.02
77450;BME280;66536;53.150;18.172;2024-01-15T06:09:38;98452.73;;;0.63;91.16
77450;BME280;66536;53.150;18.172;2024-01-15T06:12:07;98452.95;;;0.64;91.22
77450;BME280;66536;53.150;18.172;2024-01-15T06:14:34;98446.83;;;0.63;91.06
77450;BME280;66536;53.150;18.172;2024-01-15T06:17:01;98447.05;;;0.61;91.34
77450;BME280;66536;53.150;18.172;2024-01-15T06:19:27;98447.88;;;0.60;91.47
77450;BME280;66536;53.150;18.172;2024-01-15T06:21:54;98450.43;;;0.60;91.72
77450;BME280;66536;53.150;18.172;2024-01-15T06:24:21;98454.77;;;0.61;91.92
77450;BME280;66536;53.150;18.172;2024-01-15T06:26:48;98441.46;;;0.62;92.24
77450;BME280;66536;53.150;18.172;2024-01-15T06:29:20;98455.14;;;0.63;92.25
77450;BME280;66536;53.150;18.172;2024-01-15T06:31:47;98450.58;;;0.63;92.42
77450;BME280;66536;53.150;18.172;2024-01-15T06:34:16;98448.43;;;0.63;92.36
77450;BME280;66536;53.150;18.172;2024-01-15T06:36:44;98448.66;;;0.61;92.49
77450;BME280;66536;53.150;18.172;2024-01-15T06:39:11;98444.74;;;0.64;92.58
77450;BME280;66536;53.150;18.172;2024-01-15T06:41:39;98437.58;;;0.68;92.50
77450;BME280;66536;53.150;18.172;2024-01-15T06:44:11;98446.26;;;0.73;92.45
77450;BME280;66536;53.150;18.172;2024-01-15T06:46:42;98441.79;;;0.76;92.34
77450;BME280;66536;53.150;18.172;2024-01-15T06:49:13;98438.61;;;0.79;92.30
77450;BME280;66536;53.150;18.172;2024-01-15T06:51:40;98434.72;;;0.84;92.26
77450;BME280;66536;53.150;18.172;2024-01-15T06:54:08;98430.73;;;0.89;91.99
77450;BME280;66536;53.150;18.172;2024-01-15T06:56:36;98430.29;;;0.92;91.72
77450;BME280;66536;53.150;18.172;2024-01-15T06:59:03;98426.29;;;0.94;91.45
77450;BME280;66536;53.150;18.172;2024-01-15T07:01:30;98425.29;;;0.95;91.10
77450;BME280;66536;53.150;18.172;2024-01-15T07:03:57;98418.36;;;0.95;90.93
77450;BME280;66536;53.150;18.172;2024-01-15T07:06:27;98420.24;;;0.96;91.12
77450;BME280;66536;53.150;18.172;2024-01-15T07:08:54;98421.65;;;0.98;90.47
77450;BME280;66536;53.150;18.172;2024-01-15T07:11:22;98411.92;;;1.00;90.44
77450;BME280;66536;53.150;18.172;2024-01-15T07:13:52;98417.86;;;1.00;90.43
77450;BME280;66536;53.150;18.172;2024-01-15T07:16:20;98419.56;;;1.01;90.41
77450;BME280;66536;53.150;18.172;2024-01-15T07:18:47;98413.26;;;1.02;90.58
77450;BME280;66536;53.150;18.172;2024-01-15T07:21:20;98426.95;;;1.05;90.51
77450;BME280;66536;53.150;18.172;2024-01-15T07:23:47;98426.25;;;1.09;89.83
77450;BME280;66536;53.150;18.172;2024-01-15T07:26:16;98426.23;;;1.13;89.91
77450;BME280;66536;53.150;18.172;2024-01-15T07:28:46;98424.35;;;1.13;90.29
77450;BME280;66536;53.150;18.172;2024-01-15T07:31:17;98430.44;;;1.12;90.63
77450;BME280;66536;53.150;18.172;2024-01-15T07:33:44;98433.95;;;1.11;91.10
77450;BME280;66536;53.150;18.172;2024-01-15T07:36:14;98435.30;;;1.10;91.20
77450;BME280;66536;53.150;18.172;2024-01-15T07:38:43;98427.50;;;1.10;91.70
77450;BME280;66536;53.150;18.172;2024-01-15T07:41:14;98434.31;;;1.11;91.79
77450;BME280;66536;53.150;18.172;2024-01-15T07:43:43;98431.71;;;1.12;91.93
77450;BME280;66536;53.150;18.172;2024-01-15T07:46:14;98430.42;;;1.13;91.94
77450;BME280;66536;53.150;18.172;2024-01-15T07:48:43;98424.52;;;1.13;91.77
77450;BME280;66536;53.150;18.172;2024-01-15T07:51:15;98429.68;;;1.15;91.77
77450;BME280;66536;53.150;18.172;2024-01-15T07:53:42;98431.49;;;1.19;91.78
77450;BME280;66536;53.150;18.172;2024-01-15T07:56:10;98417.16;;;1.20;91.59
77450;BME280;66536;53.150;18.172;2024-01-15T07:58:37;98413.13;;;1.21;90.77
77450;BME280;66536;53.150;18.172;2024-01-15T08:01:04;98426.23;;;1.23;90.95
77450;BME280;66536;53.150;18.172;2024-01-15T08:03:33;98422.02;;;1.28;90.61
77450;BME280;66536;53.150;18.172;2024-01-15T08:06:01;98419.30;;;1.34;90.48
77450;BME280;66536;53.150;18.172;2024-01-15T08:08:31;98419.98;;;1.38;89.79
77450;BME280;66536;53.150;18.172;2024-01-15T08:10:59;98409.35;;;1.40;89.37
77450;BME280;66536;53.150;18.172;2024-01-15T08:13:26;98416.33;;;1.42;88.91
77450;BME280;66536;53.150;18.172;2024-01-15T08:15:54;98415.48;;;1.45;89.39
77450;BME280;66536;53.150;18.172;2024-01-15T08:18:25;98416.44;;;1.50;89.12
77450;BME280;66536;53.150;18.172;2024-01-15T08:20:52;98409.22;;;1.54;89.14
77450;BME280;66536;53.150;18.172;2024-01-15T08:23:22;98404.98;;;1.55;88.39
77450;BME280;66536;53.150;18.172;2024-01-15T08:25:58;98413.60;;;1.60;88.46
77450;BME280;66536;53.150;18.172;2024-01-15T08:28:25;98417.54;;;1.65;88.47
77450;BME280;66536;53.150;18.172;2024-01-15T08:30:53;98411.34;;;1.64;88.35
77450;BME280;66536;53.150;18.172;2024-01-15T08:33:20;98410.40;;;1.57;88.39
77450;BME280;66536;53.150;18.172;2024-01-15T08:35:47;98402.36;;;1.58;88.68
77450;BME280;66536;53.150;18.172;2024-01-15T08:38:15;98400.43;;;1.67;89.17
77450;BME280;66536;53.150;18.172;2024-01-15T08:40:42;98400.52;;;1.79;88.70
77450;BME280;66536;53.150;18.172;2024-01-15T08:43:09;98401.95;;;1.89;88.07
77450;BME280;66536;53.150;18.172;2024-01-15T08:45:36;98398.60;;;2.01;87.27
77450;BME280;66536;53.150;18.172;2024-01-15T08:48:04;98401.17;;;2.09;86.66
77450;BME280;66536;53.150;18.172;2024-01-15T08:50:34;98396.67;;;2.13;85.76
77450;BME280;66536;53.150;18.172;2024-01-15T08:53:03;98398.73;;;2.15;85.94
77450;BME280;66536;53.150;18.172;2024-01-15T08:55:31;98391.48;;;2.15;84.03
77450;BME280;66536;53.150;18.172;2024-01-15T08:58:00;98389.23;;;2.20;84.16
77450;BME280;66536;53.150;18.172;2024-01-15T09:00:29;98395.02;;;2.32;83.58
77450;BME280;66536;53.150;18.172;2024-01-15T09:02:56;98400.31;;;2.33;84.01
77450;BME280;66536;53.150;18.172;2024-01-15T09:05:23;98398.87;;;2.28;83.82
77450;BME280;66536;53.150;18.172;2024-01-15T09:07:50;98382.63;;;2.22;84.06
77450;BME280;66536;53.150;18.172;2024-01-15T09:10:19;98402.88;;;2.17;83.80
77450;BME280;66536;53.150;18.172;2024-01-15T09:12:46;98389.95;;;2.15;84.59
77450;BME280;66536;53.150;18.172;2024-01-15T09:15:13;98395.30;;;2.17;84.17
77450;BME280;66536;53.150;18.172;2024-01-15T09:17:41;98389.44;;;2.25;84.35
77450;BME280;66536;53.150;18.172;2024-01-15T09:20:09;98392.96;;;2.31;84.37
77450;BME280;66536;53.150;18.172;2024-01-15T09:22:40;98395.23;;;2.26;84.27
77450;BME280;66536;53.150;18.172;2024-01-15T09:25:09;98380.48;;;2.17;84.72
77450;BME280;66536;53.150;18.172;2024-01-15T09:27:38;98386.73;;;2.14;85.06
77450;BME280;66536;53.150;18.172;2024-01-15T09:30:05;98380.94;;;2.13;85.41
77450;BME280;66536;53.150;18.172;2024-01-15T09:32:32;98375.45;;;2.11;85.69
77450;BME280;66536;53.150;18.172;2024-01-15T09:35:00;98368.13;;;2.14;85.66
77450;BME280;66536;53.150;18.172;2024-01-15T09:37:26;98356.55;;;2.19;85.91
77450;BME280;66536;53.150;18.172;2024-01-15T09:39:53;98363.02;;;2.29;85.54
77450;BME280;66536;53.150;18.172;2024-01-15T09:42:24;98351.16;;;2.33;84.57
77450;BME280;66536;53.150;18.172;2024-01-15T09:45:11;98352.92;;;2.43;84.37
77450;BME280;66536;53.150;18.172;2024-01-15T09:48:03;98350.59;;;2.43;84.22
77450;BME280;66536;53.150;18.172;2024-01-15T09:50:43;98355.35;;;2.51;84.02
77450;BME280;66536;53.150;18.172;2024-01-15T09:53:11;98347.15;;;2.67;83.86
77450;BME280;66536;53.150;18.172;2024-01-15T09:55:41;98348.41;;;2.76;82.84
77450;BME280;66536;53.150;18.172;2024-01-15T09:58:09;98354.50;;;2.69;83.04
77450;BME280;66536;53.150;18.172;2024-01-15T10:00:37;98356.27;;;2.58;82.34
77450;BME280;66536;53.150;18.172;2024-01-15T10:03:08;98361.97;;;2.41;82.39
77450;BME280;66536;53.150;18.172;2024-01-15T10:05:38;98365.90;;;2.23;84.30
77450;BME280;66536;53.150;18.172;2024-01-15T10:08:05;98376.04;;;2.01;85.68
77450;BME280;66536;53.150;18.172;2024-01-15T10:10:32;98382.73;;;1.76;86.76
77450;BME280;66536;53.150;18.172;2024-01-15T10:13:31;98372.48;;;1.59;88.02
77450;BME280;66536;53.150;18.172;2024-01-15T10:16:04;98382.75;;;1.38;88.32
77450;BME280;66536;53.150;18.172;2024-01-15T10:18:55;98386.45;;;1.33;88.70
77450;BME280;66536;53.150;18.172;2024-01-15T10:21:47;98395.52;;;1.48;89.22
77450;BME280;66536;53.150;18.172;2024-01-15T10:24:22;98388.52;;;1.91;87.92
77450;BME280;66536;53.150;18.172;2024-01-15T10:26:50;98378.32;;;2.12;87.29
77450;BME280;66536;53.150;18.172;2024-01-15T10:29:17;98361.80;;;2.28;85.58
77450;BME280;66536;53.150;18.172;2024-01-15T10:31:44;98370.90;;;2.52;85.30
77450;BME280;66536;53.150;18.172;2024-01-15T10:34:13;98372.58;;;2.65;83.83
77450;BME280;66536;53.150;18.172;2024-01-15T10:36:47;98379.45;;;2.63;83.03
77450;BME280;66536;53.150;18.172;2024-01-15T10:39:19;98380.88;;;2.56;83.12
77450;BME280;66536;53.150;18.172;2024-01-15T10:41:46;98373.92;;;2.52;82.67
77450;BME280;66536;53.150;18.172;2024-01-15T10:44:13;98364.63;;;2.54;82.61
77450;BME280;66536;53.150;18.172;2024-01-15T10:46:40;98359.50;;;2.56;82.10
77450;BME280;66536;53.150;18.172;2024-01-15T10:49:08;98363.21;;;2.70;81.43
77450;BME280;66536;53.150;18.172;2024-01-15T10:51:36;98362.30;;;2.74;81.37
77450;BME280;66536;53.150;18.172;2024-01-15T10:54:05;98367.23;;;2.69;82.56
77450;BME280;66536;53.150;18.172;2024-01-15T10:56:33;98368.38;;;2.61;81.86
77450;BME280;66536;53.150;18.172;2024-01-15T10:59:03;98370.50;;;2.57;81.99
77450;BME280;66536;53.150;18.172;2024-01-15T11:01:31;98364.05;;;2.76;81.10
77450;BME280;66536;53.150;18.172;2024-01-15T11:03:59;98362.16;;;3.01;81.63
77450;BME280;66536;53.150;18.172;2024-01-15T11:06:27;98359.10;;;3.11;81.25
77450;BME280;66536;53.150;18.172;2024-01-15T11:08:55;98358.39;;;3.07;81.06
77450;BME280;66536;53.150;18.172;2024-01-15T11:11:26;98360.46;;;2.99;80.08
77450;BME280;66536;53.150;18.172;2024-01-15T11:13:57;98350.86;;;2.90;81.00
77450;BME280;66536;53.150;18.172;2024-01-15T11:16:56;98357.94;;;2.74;81.65
77450;BME280;66536;53.150;18.172;2024-01-15T11:19:44;98359.15;;;2.48;83.84
77450;BME280;66536;53.150;18.172;2024-01-15T11:25:40;98374.60;;;1.93;86.43
77450;BME280;66536;53.150;18.172;2024-01-15T11:28:09;98377.63;;;1.56;87.87
77450;BME280;66536;53.150;18.172;2024-01-15T11:33:57;98373.06;;;1.13;90.70
77450;BME280;66536;53.150;18.172;2024-01-15T11:39:45;98375.34;;;1.01;91.83
77450;BME280;66536;53.150;18.172;2024-01-15T11:42:53;98379.90;;;0.96;92.57
77450;BME280;66536;53.150;18.172;2024-01-15T11:46:27;98368.46;;;1.16;92.43
77450;BME280;66536;53.150;18.172;2024-01-15T11:49:05;98371.06;;;1.41;91.67
77450;BME280;66536;53.150;18.172;2024-01-15T11:51:56;98371.27;;;1.52;90.62
77450;BME280;66536;53.150;18.172;2024-01-15T11:54:38;98366.86;;;1.48;89.65
77450;BME280;66536;53.150;18.172;2024-01-15T11:57:18;98355.90;;;1.62;89.04
77450;BME280;66536;53.150;18.172;2024-01-15T11:59:50;98340.90;;;1.83;87.73
77450;BME280;66536;53.150;18.172;2024-01-15T12:02:24;98331.86;;;1.91;86.28
77450;BME280;66536;53.150;18.172;2024-01-15T12:04:53;98350.48;;;1.97;84.30
77450;BME280;66536;53.150;18.172;2024-01-15T12:07:23;98330.05;;;2.01;83.82
77450;BME280;66536;53.150;18.172;2024-01-15T12:09:55;98338.79;;;1.99;81.70
77450;BME280;66536;53.150;18.172;2024-01-15T12:12:34;98340.48;;;1.92;81.69
77450;BME280;66536;53.150;18.172;2024-01-15T12:15:06;98345.36;;;1.89;82.58
77450;BME280;66536;53.150;18.172;2024-01-15T12:17:34;98350.08;;;1.88;81.40
77450;BME280;66536;53.150;18.172;2024-01-15T12:20:05;98387.92;;;2.01;80.13
77450;BME280;66536;53.150;18.172;2024-01-15T12:22:32;98403.45;;;2.14;79.23
77450;BME280;66536;53.150;18.172;2024-01-15T12:25:00;98402.92;;;2.06;79.97
77450;BME280;66536;53.150;18.172;2024-01-15T12:27:32;98404.88;;;1.90;79.23
77450;BME280;66536;53.150;18.172;2024-01-15T12:30:00;98394.05;;;1.74;80.47
77450;BME280;66536;53.150;18.172;2024-01-15T12:32:28;98399.11;;;1.58;80.01
77450;BME280;66536;53.150;18.172;2024-01-15T12:34:55;98394.74;;;1.45;80.86
77450;BME280;66536;53.150;18.172;2024-01-15T12:37:23;98397.32;;;1.41;80.95
77450;BME280;66536;53.150;18.172;2024-01-15T12:39:52;98396.39;;;1.44;80.72
77450;BME280;66536;53.150;18.172;2024-01-15T12:42:24;98399.70;;;1.51;81.17
77450;BME280;66536;53.150;18.172;2024-01-15T12:44:51;98395.91;;;1.57;80.48
77450;BME280;66536;53.150;18.172;2024-01-15T12:47:17;98398.39;;;1.61;79.97
77450;BME280;66536;53.150;18.172;2024-01-15T12:49:47;98403.49;;;1.65;79.65
77450;BME280;66536;53.150;18.172;2024-01-15T12:52:20;98401.12;;;1.69;79.71
77450;BME280;66536;53.150;18.172;2024-01-15T12:54:52;98402.07;;;1.75;80.06
77450;BME280;66536;53.150;18.172;2024-01-15T12:57:19;98396.87;;;1.89;80.28
77450;BME280;66536;53.150;18.172;2024-01-15T12:59:46;98393.01;;;1.99;79.19
77450;BME280;66536;53.150;18.172;2024-01-15T13:02:14;98399.54;;;2.02;78.54
77450;BME280;66536;53.150;18.172;2024-01-15T13:04:42;98397.24;;;2.04;78.53
77450;BME280;66536;53.150;18.172;2024-01-15T13:07:09;98405.75;;;2.01;78.35
77450;BME280;66536;53.150;18.172;2024-01-15T13:09:36;98406.98;;;1.91;76.65
77450;BME280;66536;53.150;18.172;2024-01-15T13:12:03;98402.34;;;1.81;77.78
77450;BME280;66536;53.150;18.172;2024-01-15T13:14:30;98404.43;;;1.74;77.76
77450;BME280;66536;53.150;18.172;2024-01-15T13:16:58;98398.11;;;1.68;77.20
77450;BME280;66536;53.150;18.172;2024-01-15T13:19:27;98403.67;;;1.67;75.83